Search for airport 
image banner adimage banner adimage banner ad
image banner ad

9PN8 - Malinchak Pvt

Located in Carbondale, United States

ICAO - 9PN8, IATA -

Data provided by Airmate  

General information

Coordinates: N41°37'30" W75°31'59"
Elevation is 1700 feet MSL.
Magnetic variation is -12° East
View others Airports in Pennsylvania

Operational data

Special qualification required
Current time UTC:
Current local time:
Weather at : KAVP - Wilkes-Barre/Scranton Intl ( 36 km )
METAR: KAVP 061111Z 36009G15KT 9SM -RA BKN024 OVC037 08/03 A2999 RMK AO2 RAB1055 P0000 T00830033
TAF: KAVP 060857Z 0609/0706 30008G14KT P6SM BKN035 TEMPO 0609/0611 BKN025 FM061400 33010G17KT P6SM SCT035 FM061800 33008G15KT P6SM FEW250 FM062200 35007KT P6SM SCT250 FM070200 05004KT P6SM SCT250
View NOTAMs / SUP AIP / TFR affecting this airport [VIEW]
Communications frequencies: [VIEW]

Runways:

RWY identifierQFULength (ft)Width (ft)SurfaceLDA (ft)
N2000100GRASS
S2000100GRASS

Airport contact information

Address: Carbondale United States

Satellite view of 9PN8